Witham, FL

9:00 PM EDT on April 27, 2015 (GMT -0400)
Witham | | Change Station
CLOSE
Current Station
Airport
Location: Stuart,
Elevation: 20 ft
Nearby Weather Stations

Elev 20 ft 27.18 °N, 80.22 °W | Updated 5 minutes ago

Mostly Cloudy
Mostly Cloudy
70 °F
Feels Like 70 °F
N
6
Wind Variable Wind from South

Today
High -- | Low -- °F
--% Chance of Precip.
Yesterday
High -- | Low -- °F
Precip. -- in
6:45 AM 7:51 PM
Waxing Gibbous, 69% visible
Pressure 29.85 in
Visibility 10.0 miles
Clouds Mostly Cloudy 7000 ft
Mostly Cloudy 8500 ft
Dew Point 68 °F
Humidity 94%
Rainfall 0.06 in
Snow Depth Not available.
UV 0 out of 12
Pollen 4.30 out of 12
Air Quality Not available.
Flu Activity Local Activity
METAR KSUA 280055Z AUTO 19005KT 10SM BKN070 BKN085 21/20 A2985 RMK AO2

More Conditions Fewer Conditions

Pressure 29.85 in
Visibility 10.0 miles
Clouds Mostly Cloudy 7000 ft
Mostly Cloudy 8500 ft
Dew Point 68 °F
Humidity 94%
Rainfall 0.06 in
Snow Depth Not available.
UV 0 out of 12
Pollen 4.30 out of 12
Air Quality Not available.
Flu Activity Local Activity
METAR KSUA 280055Z AUTO 19005KT 10SM BKN070 BKN085 21/20 A2985 RMK AO2

More Conditions Fewer Conditions

Nowcast | as of 7:32 PM EDT on April 27, 2015

Areas of light rain and sprinkles will be possible across Northern Lake and northern Volusia County into late evening. Scattered showers across Martin and Saint Lucie County will move east toward the Atlantic through 10 PM. The threat for severe weather has ended for the Treasure Coast this evening as severe storms pushed east across the Atlantic waters between 7 and 730 PM. Additional details...including graphics are available online at: http://www.Srh.NOAA.Gov/mlb/blog.Php

×

10-Day Weather Forecast

Almanac

Astronomy

Apr. 27, 2015 Rise Set
Actual Time
Civil Twilight
Nautical Twilight
Astronomical Twilight
Moon
Length of Visible Light
Length of Day
Tomorrow will be .
, % of the Moon is Illuminated

Today's Extremes

State Highs State Lows

Community

WunderPhotos

Upload Photos

1,817,503 photos uploaded!

WunderBlogs® & News

Nearby

Air Quality

  Air Quality AQ Index Pollutant
Not available.

Snow Depth

Station Depth Elevation

Earthquake Activity

City Distance Mag. Time & Date
Minimum magnitude displayed is 2.5.

Coastal Water Temperatures

Place Temperature

Stations

Nearby Weather Stations

Station Location Temp. Windchill Dew Point Humidity Wind Precip. Elev Updated Type